Time;durP1;ratioP1;P1;durP2;ratioP2;P2;SDS_P1;SDS_P2;PMS_P1;PMS_P2;Temp;Humidity;BMP_temperature;BMP_pressure;BME280_temperature;BME280_humidity;BME280_pressure;Samples;Min_cycle;Max_cycle;Signal;HPM_P1;HPM_P2
2023/09/04 00:02:56;;;;;;;15.63;2.95;;;;;;;;;;21086940;28;20048;-62
2023/09/04 00:12:57;;;;;;;13.30;2.83;;;;;;;;;;21086093;28;20040;-62
2023/09/04 00:22:58;;;;;;;13.93;2.58;;;;;;;;;;21086583;28;20037;-62
2023/09/04 00:32:59;;;;;;;14.10;2.38;;;;;;;;;;21085956;28;20036;-62
2023/09/04 00:43:01;;;;;;;6.88;2.28;;;;;;;;;;21083828;28;20059;-62
2023/09/04 00:53:03;;;;;;;6.30;2.40;;;;;;;;;;21083847;28;20121;-62
2023/09/04 01:03:04;;;;;;;9.10;2.17;;;;;;;;;;21081643;28;20055;-62
2023/09/04 01:13:10;;;;;;;10.90;2.35;;;;;;;;;;21082893;28;20048;-62
2023/09/04 01:23:11;;;;;;;11.23;2.40;;;;;;;;;;21081103;28;20048;-63
2023/09/04 01:33:13;;;;;;;11.32;3.35;;;;;;;;;;21081570;28;20055;-62
2023/09/04 01:43:15;;;;;;;9.13;2.97;;;;;;;;;;21081060;28;20044;-62
2023/09/04 01:53:16;;;;;;;12.13;5.57;;;;;;;;;;21080697;28;20524;-62
2023/09/04 02:03:17;;;;;;;14.20;5.20;;;;;;;;;;21080427;28;20428;-62
2023/09/04 02:13:19;;;;;;;18.17;6.60;;;;;;;;;;21079939;28;20386;-62
2023/09/04 02:23:20;;;;;;;17.10;4.22;;;;;;;;;;21094002;28;20044;-62
2023/09/04 02:33:21;;;;;;;11.43;4.13;;;;;;;;;;21094079;28;20040;-63
2023/09/04 02:43:23;;;;;;;15.02;4.63;;;;;;;;;;21094557;28;20086;-62
2023/09/04 02:53:26;;;;;;;12.65;4.57;;;;;;;;;;21093254;28;20505;-62
2023/09/04 03:03:28;;;;;;;17.88;4.53;;;;;;;;;;21093238;28;20490;-63
2023/09/04 03:13:29;;;;;;;13.15;4.50;;;;;;;;;;21092304;28;20115;-62
2023/09/04 03:23:31;;;;;;;14.85;5.75;;;;;;;;;;21091531;28;20529;-61
2023/09/04 03:33:32;;;;;;;12.88;6.05;;;;;;;;;;21089080;28;20131;-62
2023/09/04 03:43:34;;;;;;;20.50;5.15;;;;;;;;;;21090132;28;20535;-63
2023/09/04 03:53:35;;;;;;;20.42;4.93;;;;;;;;;;21088473;28;20084;-62
2023/09/04 04:03:36;;;;;;;17.30;3.90;;;;;;;;;;21087412;28;20097;-63
2023/09/04 04:13:37;;;;;;;13.50;3.72;;;;;;;;;;21087274;28;20123;-61
2023/09/04 04:23:38;;;;;;;16.13;3.47;;;;;;;;;;21085433;28;20074;-62
2023/09/04 04:33:39;;;;;;;24.65;5.28;;;;;;;;;;21085719;28;20124;-63
2023/09/04 04:43:41;;;;;;;18.85;4.32;;;;;;;;;;21084268;28;20044;-63
2023/09/04 04:53:42;;;;;;;25.48;5.18;;;;;;;;;;21083751;28;20098;-62
2023/09/04 05:03:43;;;;;;;25.80;5.18;;;;;;;;;;21082254;28;20052;-63
2023/09/04 05:13:44;;;;;;;31.58;6.75;;;;;;;;;;21081599;28;20047;-62
2023/09/04 05:23:47;;;;;;;23.88;4.78;;;;;;;;;;21082134;28;20507;-62
2023/09/04 05:33:48;;;;;;;23.98;6.10;;;;;;;;;;21081276;28;20097;-62
2023/09/04 05:43:49;;;;;;;26.55;6.38;;;;;;;;;;21081116;28;20052;-62
2023/09/04 05:53:50;;;;;;;21.92;5.88;;;;;;;;;;21079960;28;20070;-62
2023/09/04 06:03:52;;;;;;;19.02;5.60;;;;;;;;;;21080174;28;20158;-62
2023/09/04 06:13:54;;;;;;;22.40;5.82;;;;;;;;;;21079660;28;20404;-62
2023/09/04 06:23:55;;;;;;;27.20;6.55;;;;;;;;;;21079379;28;20453;-63
2023/09/04 06:33:56;;;;;;;24.02;6.47;;;;;;;;;;21079077;28;20047;-62
2023/09/04 06:43:57;;;;;;;23.30;6.07;;;;;;;;;;21078471;28;20056;-63
2023/09/04 06:53:58;;;;;;;19.15;5.68;;;;;;;;;;21077491;28;20056;-63
2023/09/04 07:03:59;;;;;;;16.23;5.10;;;;;;;;;;21084188;28;20079;-66
2023/09/04 07:14:00;;;;;;;24.60;6.57;;;;;;;;;;21092230;28;20080;-66
2023/09/04 07:24:03;;;;;;;14.00;4.80;;;;;;;;;;21091399;28;20093;-65
2023/09/04 07:34:04;;;;;;;18.40;5.05;;;;;;;;;;21090581;28;20489;-66
2023/09/04 07:44:05;;;;;;;13.50;3.97;;;;;;;;;;21089975;28;20101;-66
2023/09/04 07:54:06;;;;;;;15.13;4.20;;;;;;;;;;21088208;28;20083;-66
2023/09/04 08:04:07;;;;;;;14.10;3.75;;;;;;;;;;21088049;28;20123;-66
2023/09/04 08:14:09;;;;;;;32.55;7.53;;;;;;;;;;21087513;28;20497;-64
2023/09/04 08:24:10;;;;;;;22.10;7.85;;;;;;;;;;21086517;28;20051;-66
2023/09/04 08:34:11;;;;;;;16.08;4.80;;;;;;;;;;21084561;28;20052;-65
2023/09/04 08:44:12;;;;;;;20.38;4.65;;;;;;;;;;21084910;28;20048;-65
2023/09/04 08:54:14;;;;;;;22.30;6.72;;;;;;;;;;21082583;28;20151;-66
2023/09/04 09:04:16;;;;;;;14.80;5.20;;;;;;;;;;21083523;28;20528;-65
2023/09/04 09:14:18;;;;;;;18.02;6.07;;;;;;;;;;21082846;28;20493;-66
2023/09/04 09:24:20;;;;;;;19.15;6.03;;;;;;;;;;21080380;28;20047;-66
2023/09/04 09:34:21;;;;;;;14.68;4.97;;;;;;;;;;21081382;28;20489;-68
2023/09/04 09:44:22;;;;;;;17.58;5.22;;;;;;;;;;21081088;28;20055;-69
2023/09/04 09:54:39;;;;;;;13.30;4.03;;;;;;;;;;21080018;28;20501;-67
2023/09/04 10:04:41;;;;;;;13.03;3.70;;;;;;;;;;21080336;28;20047;-68
2023/09/04 10:14:44;;;;;;;10.45;3.55;;;;;;;;;;21079511;28;20101;-67
2023/09/04 10:24:49;;;;;;;13.52;3.33;;;;;;;;;;21079315;28;20051;-67
2023/09/04 10:34:50;;;;;;;13.82;3.28;;;;;;;;;;21078994;28;20040;-68
2023/09/04 10:44:53;;;;;;;14.00;3.42;;;;;;;;;;21093116;28;20044;-68
2023/09/04 10:55:12;;;;;;;9.80;2.78;;;;;;;;;;21093603;28;20064;-67
2023/09/04 11:05:13;;;;;;;12.07;3.05;;;;;;;;;;21093692;28;20040;-67
2023/09/04 11:15:17;;;;;;;9.05;3.40;;;;;;;;;;21092718;28;20044;-68
2023/09/04 11:25:18;;;;;;;8.43;2.80;;;;;;;;;;21091433;28;20051;-68
2023/09/04 11:35:19;;;;;;;12.73;2.72;;;;;;;;;;21088803;28;20051;-67
2023/09/04 11:45:21;;;;;;;14.10;2.72;;;;;;;;;;21088646;28;20102;-68
2023/09/04 11:55:24;;;;;;;10.10;2.78;;;;;;;;;;21087826;28;20424;-67
2023/09/04 12:05:25;;;;;;;14.05;3.30;;;;;;;;;;21088367;28;20044;-67
2023/09/04 12:15:31;;;;;;;10.38;3.25;;;;;;;;;;21087855;28;20047;-68
2023/09/04 12:25:36;;;;;;;9.63;3.00;;;;;;;;;;21084596;28;20044;-67
2023/09/04 12:35:37;;;;;;;13.60;2.78;;;;;;;;;;21081053;28;20036;-64
2023/09/04 12:45:38;;;;;;;9.93;3.28;;;;;;;;;;21084654;28;20143;-64
2023/09/04 12:55:39;;;;;;;12.23;4.20;;;;;;;;;;21074237;28;20056;-65
2023/09/04 13:05:40;;;;;;;16.63;3.67;;;;;;;;;;21076732;28;20044;-65
2023/09/04 13:15:42;;;;;;;16.25;4.72;;;;;;;;;;21082850;28;20123;-63
2023/09/04 13:25:43;;;;;;;12.50;4.28;;;;;;;;;;21082384;28;20122;-65
2023/09/04 13:35:44;;;;;;;16.13;4.35;;;;;;;;;;21081534;28;20070;-63
2023/09/04 13:45:45;;;;;;;16.10;4.05;;;;;;;;;;21080960;28;20051;-63
2023/09/04 13:55:48;;;;;;;11.95;3.45;;;;;;;;;;21081092;28;20056;-63
2023/09/04 14:05:52;;;;;;;13.23;3.47;;;;;;;;;;21079536;28;20041;-63
2023/09/04 14:15:53;;;;;;;14.27;4.55;;;;;;;;;;21091313;28;20392;-63
2023/09/04 14:25:54;;;;;;;10.63;3.47;;;;;;;;;;21096273;28;20054;-63
2023/09/04 14:35:59;;;;;;;14.45;4.35;;;;;;;;;;21095339;28;20043;-63
2023/09/04 14:46:07;;;;;;;12.13;2.92;;;;;;;;;;21094708;28;20155;-64
2023/09/04 14:56:08;;;;;;;11.20;2.92;;;;;;;;;;21093607;28;20060;-65
2023/09/04 15:06:10;;;;;;;12.23;2.95;;;;;;;;;;21091875;28;20122;-64
2023/09/04 15:16:11;;;;;;;11.05;3.55;;;;;;;;;;21092105;28;20087;-64
2023/09/04 15:26:12;;;;;;;6.82;2.25;;;;;;;;;;21088768;28;20075;-62
2023/09/04 15:36:13;;;;;;;11.27;3.28;;;;;;;;;;21089453;28;20051;-63
2023/09/04 15:46:15;;;;;;;12.73;3.60;;;;;;;;;;21089226;28;20051;-63
2023/09/04 15:56:16;;;;;;;13.20;4.25;;;;;;;;;;21089079;28;20059;-63
2023/09/04 16:06:17;;;;;;;12.32;3.83;;;;;;;;;;21086231;28;20048;-63
2023/09/04 16:16:18;;;;;;;6.28;3.00;;;;;;;;;;21085519;28;20040;-63
2023/09/04 16:26:19;;;;;;;8.48;2.28;;;;;;;;;;21085582;28;20457;-62
2023/09/04 16:36:20;;;;;;;7.57;2.85;;;;;;;;;;21085467;28;20071;-65
2023/09/04 16:46:21;;;;;;;11.27;4.03;;;;;;;;;;21083489;28;20059;-63
2023/09/04 16:56:22;;;;;;;9.13;3.35;;;;;;;;;;21082767;28;20056;-65
2023/09/04 17:06:23;;;;;;;5.50;2.70;;;;;;;;;;21083546;28;20094;-65
2023/09/04 17:16:25;;;;;;;9.60;3.20;;;;;;;;;;21082274;28;20043;-63
2023/09/04 17:26:26;;;;;;;6.70;2.45;;;;;;;;;;21081822;28;20113;-62
2023/09/04 17:36:27;;;;;;;11.60;5.63;;;;;;;;;;21080623;28;20040;-63
2023/09/04 17:46:28;;;;;;;5.97;2.35;;;;;;;;;;21080230;28;20489;-63
2023/09/04 17:56:29;;;;;;;10.82;4.95;;;;;;;;;;21078610;28;20055;-64
2023/09/04 18:06:31;;;;;;;4.78;2.50;;;;;;;;;;21080258;28;20071;-62
2023/09/04 18:16:32;;;;;;;5.00;2.38;;;;;;;;;;21078134;28;20086;-64
2023/09/04 18:26:35;;;;;;;6.95;3.20;;;;;;;;;;21079144;28;20040;-63
2023/09/04 18:36:36;;;;;;;5.13;2.22;;;;;;;;;;21077218;28;20044;-63
2023/09/04 18:46:37;;;;;;;9.05;3.67;;;;;;;;;;21077461;28;20131;-63
2023/09/04 18:56:39;;;;;;;10.85;4.20;;;;;;;;;;21079102;28;20056;-65
2023/09/04 19:06:40;;;;;;;10.95;4.72;;;;;;;;;;21092036;28;20076;-66
2023/09/04 19:16:41;;;;;;;9.15;4.13;;;;;;;;;;21091532;28;20040;-65
2023/09/04 19:26:42;;;;;;;14.27;4.78;;;;;;;;;;21090395;28;20119;-67
2023/09/04 19:36:43;;;;;;;18.83;5.13;;;;;;;;;;21090031;28;20050;-65
2023/09/04 19:46:44;;;;;;;17.40;7.55;;;;;;;;;;21088563;28;20128;-71
2023/09/04 19:56:45;;;;;;;18.90;6.03;;;;;;;;;;21088994;28;20263;-72
2023/09/04 20:06:47;;;;;;;19.85;6.32;;;;;;;;;;21088972;28;20040;-72
2023/09/04 20:16:48;;;;;;;20.80;5.85;;;;;;;;;;21087097;28;20504;-72
2023/09/04 20:26:51;;;;;;;19.40;5.63;;;;;;;;;;21086606;28;20451;-71
2023/09/04 20:36:56;;;;;;;25.65;7.05;;;;;;;;;;21084579;28;20051;-72
2023/09/04 20:46:58;;;;;;;19.38;6.10;;;;;;;;;;21085385;28;20052;-74
2023/09/04 20:57:00;;;;;;;22.13;6.57;;;;;;;;;;21083691;28;20055;-71
2023/09/04 23:31:14;;;;;;;28.65;6.50;;;;;;;;;;21092105;28;20048;-71
2023/09/04 23:51:37;;;;;;;34.10;7.13;;;;;;;;;;21089133;28;20052;-72
